Huvudsida
METAR-TAF:

METAR-TAF

Flygplatser :

Southampton Airport

Southampton, England

latitud: 50-54N, longitud: 001-24W, höjd: 9 m

Aktuellt väderrapport

Denna rapport gjordes för 10 timmar och 59 minuter sedan, klockan 18:20 UTC
Vind 9 kt från nordväst, varierande mellan väst och nord
Temperatur 18°C
Fuktighet 59%
Tryck 1016 hPa
Sikt 10 km eller mer
Få moln på en höjd av 3200 ft

METAR: EGHI 141820Z 31009KT 260V350 9999 FEW032 18/10 Q1016

Tid: 06:19 (05:19 UTC)

Väderprognos

Denna rapport gjordes för 15 timmar och 15 minuter sedan, klockan 14:04 UTC
Prognos gäller från 14 kl. 15 UTC till 14 kl. 19 UTC
Vind 5 kt från nord/nordväst
Sikt 10 km eller mer
Spridda moln på en höjd av 2500 ft
Sannolikhet 30% :
Temporärt
från 14 kl. 15 UTC till 14 kl. 18 UTC
Sikt: 7000 m
lätta regnskurar

TAF: EGHI 141404Z 1415/1419 33005KT 9999 SCT025 PROB30 TEMPO 1415/1418 7000 -SHRA

Aktuella väderrapporter och prognoser från 4000 flygplatser (METAR- och TAF-rapporter).

De tillgängliga stationerna syns som gula och röda prickar på kartan.

För musen över prickarna för att se namnen på stationerna.

Klicka sedan för att få väderrapporter och prognoser.

För att ändra kartan: Klicka på de gröna knapparna med ett svart kors på för att zooma in; den gröna knappen med ett streck på för att zooma ut; eller på de gröna pilarna för angränsande kartor.


METAR-TAF: